createdAt,value
2023-05-05T00:00:15.748Z,13.38
2023-05-05T00:01:15.747Z,13.43
2023-05-05T00:02:15.646Z,13.40
2023-05-05T00:03:15.652Z,13.41
2023-05-05T00:04:15.727Z,13.41
2023-05-05T00:05:15.603Z,13.46
2023-05-05T00:06:15.601Z,13.49
2023-05-05T00:07:15.593Z,13.51
2023-05-05T00:08:15.570Z,13.49
2023-05-05T00:09:15.547Z,13.49
2023-05-05T00:10:15.555Z,13.47
2023-05-05T00:11:15.531Z,13.51
2023-05-05T00:12:15.619Z,13.44
2023-05-05T00:13:15.553Z,13.52
2023-05-05T00:14:15.518Z,13.49
2023-05-05T00:15:15.575Z,13.55
2023-05-05T00:16:15.487Z,13.58
2023-05-05T00:17:15.528Z,13.61
2023-05-05T00:18:15.507Z,13.70
2023-05-05T00:19:15.448Z,13.71
2023-05-05T00:20:15.467Z,13.74
2023-05-05T00:21:15.430Z,13.81
2023-05-05T00:22:15.464Z,13.81
2023-05-05T00:23:15.395Z,13.84
2023-05-05T00:24:15.380Z,13.83
2023-05-05T00:25:15.388Z,13.88
2023-05-05T00:26:15.346Z,13.96
2023-05-05T00:27:15.316Z,13.95
2023-05-05T00:28:15.375Z,13.99
2023-05-05T00:29:15.372Z,13.92
2023-05-05T00:30:15.349Z,13.94
2023-05-05T00:31:15.353Z,13.94
2023-05-05T00:32:15.360Z,13.91
2023-05-05T00:33:15.353Z,13.95
2023-05-05T00:34:15.317Z,13.94
2023-05-05T00:35:15.311Z,13.92
2023-05-05T00:36:15.292Z,13.87
2023-05-05T00:37:15.274Z,13.80
2023-05-05T00:38:15.284Z,13.76
2023-05-05T00:39:15.241Z,13.70
2023-05-05T00:40:15.257Z,13.67
2023-05-05T00:41:15.269Z,13.65
2023-05-05T00:42:15.226Z,13.62
2023-05-05T00:43:15.202Z,13.56
2023-05-05T00:44:15.259Z,13.51
2023-05-05T00:45:15.207Z,13.52
2023-05-05T00:46:15.213Z,13.52
2023-05-05T00:47:15.169Z,13.49
2023-05-05T00:48:15.171Z,13.47
2023-05-05T00:49:15.158Z,13.51
2023-05-05T00:50:15.165Z,13.55
2023-05-05T00:51:15.183Z,13.52
2023-05-05T00:52:15.148Z,13.56
2023-05-05T00:53:15.123Z,13.56
2023-05-05T00:54:15.101Z,13.55
2023-05-05T00:55:15.128Z,13.59
2023-05-05T00:56:15.121Z,13.59
2023-05-05T00:57:15.125Z,13.62
2023-05-05T00:58:15.180Z,13.62
2023-05-05T00:59:15.068Z,13.61
2023-05-05T01:00:15.069Z,13.58
2023-05-05T01:01:15.163Z,13.56
2023-05-05T01:02:15.064Z,13.52
2023-05-05T01:03:15.064Z,13.49
2023-05-05T01:04:15.013Z,13.51
2023-05-05T01:05:15.027Z,13.52
2023-05-05T01:07:53.596Z,13.56
2023-05-05T01:08:54.593Z,13.46
2023-05-05T01:10:07.258Z,13.44
2023-05-05T01:10:54.535Z,13.38
2023-05-05T01:11:54.570Z,13.33
2023-05-05T01:12:54.538Z,13.33
2023-05-05T01:13:54.516Z,13.29
2023-05-05T01:14:54.498Z,13.24
2023-05-05T01:15:54.510Z,13.20
2023-05-05T01:16:54.466Z,13.24
2023-05-05T01:17:54.539Z,13.18
2023-05-05T01:18:54.480Z,13.22
2023-05-05T01:19:54.454Z,13.22
2023-05-05T01:20:54.443Z,13.25
2023-05-05T01:21:54.462Z,13.24
2023-05-05T01:22:54.412Z,13.25
2023-05-05T01:23:54.397Z,13.29
2023-05-05T01:24:54.410Z,13.32
2023-05-05T01:25:54.452Z,13.37
2023-05-05T01:26:54.364Z,13.33
2023-05-05T01:27:54.364Z,13.36
2023-05-05T01:28:54.394Z,13.37
2023-05-05T01:29:54.349Z,13.40
2023-05-05T01:30:54.345Z,13.33
2023-05-05T01:31:54.375Z,13.32
2023-05-05T01:32:54.351Z,13.36
2023-05-05T01:33:54.379Z,13.37
2023-05-05T01:34:54.288Z,13.41
2023-05-05T01:35:54.287Z,13.41
2023-05-05T01:36:54.260Z,13.43
2023-05-05T01:37:54.278Z,13.44
2023-05-05T01:38:54.240Z,13.43
2023-05-05T01:39:54.277Z,13.43
2023-05-05T01:40:54.225Z,13.46
2023-05-05T01:41:54.229Z,13.47
2023-05-05T01:42:54.244Z,13.54
2023-05-05T01:43:54.209Z,13.56
2023-05-05T01:44:54.201Z,13.58
2023-05-05T01:45:54.208Z,13.56
2023-05-05T01:46:54.213Z,13.59
2023-05-05T01:47:54.236Z,13.58
2023-05-05T01:48:54.160Z,13.61
2023-05-05T01:49:54.127Z,13.61
2023-05-05T01:50:54.141Z,13.62
2023-05-05T01:51:54.121Z,13.59
2023-05-05T01:52:54.157Z,13.59
2023-05-05T01:53:54.127Z,13.54
2023-05-05T01:54:54.076Z,13.55
2023-05-05T01:55:54.102Z,13.51
2023-05-05T01:56:54.096Z,13.51
2023-05-05T01:57:54.043Z,13.46
2023-05-05T01:58:54.100Z,13.40
2023-05-05T01:59:54.057Z,13.36
2023-05-05T02:00:54.125Z,13.33
2023-05-05T02:01:54.008Z,13.32
2023-05-05T02:02:54.107Z,13.29
2023-05-05T02:03:54.003Z,13.29
2023-05-05T02:04:53.992Z,13.21
2023-05-05T02:05:53.952Z,13.21
2023-05-05T02:06:53.981Z,13.12
2023-05-05T02:07:53.962Z,13.07
2023-05-05T02:08:53.969Z,13.11
2023-05-05T02:09:53.943Z,13.11
2023-05-05T02:10:53.926Z,13.07
2023-05-05T02:11:53.918Z,13.09
2023-05-05T02:12:53.998Z,13.06
2023-05-05T02:13:53.955Z,13.09
2023-05-05T02:14:53.945Z,13.14
2023-05-05T02:15:53.883Z,13.11
2023-05-05T02:16:53.944Z,13.09
2023-05-05T02:17:54.016Z,13.11
2023-05-05T02:18:53.944Z,13.21
2023-05-05T02:19:53.828Z,13.18
2023-05-05T02:20:53.825Z,13.15
2023-05-05T02:21:53.758Z,13.12
2023-05-05T02:22:53.796Z,13.04
2023-05-05T02:23:53.791Z,13.02
2023-05-05T02:24:53.810Z,12.96
2023-05-05T02:25:53.789Z,12.95
2023-05-05T02:26:53.775Z,12.82
2023-05-05T02:27:53.779Z,12.85
2023-05-05T02:28:53.745Z,12.81
2023-05-05T02:29:53.748Z,12.81
2023-05-05T02:30:53.730Z,12.84
2023-05-05T02:31:53.761Z,12.87
2023-05-05T02:32:53.781Z,12.87
2023-05-05T02:33:53.711Z,12.89
2023-05-05T02:34:53.709Z,12.92
2023-05-05T02:35:53.679Z,12.93
2023-05-05T02:36:53.707Z,12.88
2023-05-05T02:37:53.639Z,12.93
2023-05-05T02:38:53.665Z,12.97
2023-05-05T02:39:53.631Z,13.03
2023-05-05T02:40:53.631Z,13.02
2023-05-05T02:41:53.611Z,13.00
2023-05-05T02:42:53.659Z,13.03
2023-05-05T02:43:53.626Z,13.06
2023-05-05T02:44:53.595Z,13.11
2023-05-05T02:45:53.592Z,13.11
2023-05-05T02:46:53.571Z,13.14
2023-05-05T02:47:53.648Z,13.18
2023-05-05T02:48:53.527Z,13.20
2023-05-05T02:49:53.516Z,13.22
2023-05-05T02:50:53.517Z,13.27
2023-05-05T02:51:53.541Z,13.27
2023-05-05T02:52:53.480Z,13.29
2023-05-05T02:53:53.540Z,13.29
2023-05-05T02:54:53.475Z,13.32
2023-05-05T02:55:53.463Z,13.36
2023-05-05T02:56:53.475Z,13.30
2023-05-05T02:57:53.423Z,13.30
2023-05-05T02:58:53.433Z,13.29
2023-05-05T02:59:53.400Z,13.24
2023-05-05T03:00:53.457Z,13.21
2023-05-05T03:01:53.501Z,13.18
2023-05-05T03:02:53.429Z,13.21
2023-05-05T03:03:53.536Z,13.18
2023-05-05T03:04:53.354Z,13.20
2023-05-05T03:05:53.351Z,13.21
2023-05-05T03:06:53.370Z,13.21
2023-05-05T03:07:53.368Z,13.15
2023-05-05T03:08:53.361Z,13.15
2023-05-05T03:09:53.303Z,13.15
2023-05-05T03:10:53.338Z,13.14
2023-05-05T03:11:53.281Z,13.14
2023-05-05T03:12:53.356Z,13.18
2023-05-05T03:13:53.281Z,13.15
2023-05-05T03:14:53.308Z,13.15
2023-05-05T03:15:53.255Z,13.09
2023-05-05T03:16:53.254Z,13.09
2023-05-05T03:17:53.265Z,13.06
2023-05-05T03:18:53.250Z,13.06
2023-05-05T03:19:53.213Z,13.03
2023-05-05T03:20:53.244Z,13.00
2023-05-05T03:21:53.208Z,12.99
2023-05-05T03:22:53.198Z,12.93
2023-05-05T03:23:53.180Z,12.93
2023-05-05T03:24:53.179Z,12.92
2023-05-05T03:25:53.155Z,12.87
2023-05-05T03:26:53.078Z,12.88
2023-05-05T03:27:53.108Z,12.85
2023-05-05T03:28:53.089Z,12.85
2023-05-05T03:29:53.069Z,12.89
2023-05-05T03:30:53.030Z,12.84
2023-05-05T03:31:53.030Z,12.84
2023-05-05T03:32:53.046Z,12.84
2023-05-05T03:33:53.033Z,12.82
2023-05-05T03:34:53.035Z,12.84
2023-05-05T03:35:53.013Z,12.87
2023-05-05T03:36:53.000Z,12.87
2023-05-05T03:37:52.980Z,12.87
2023-05-05T03:38:52.965Z,12.88
2023-05-05T03:39:52.924Z,12.88
2023-05-05T03:40:52.972Z,12.93
2023-05-05T03:41:52.921Z,12.95
2023-05-05T03:42:52.927Z,12.99
2023-05-05T03:43:52.968Z,13.03
2023-05-05T03:44:52.916Z,13.06
2023-05-05T03:45:52.972Z,13.14
2023-05-05T03:46:52.877Z,13.07
2023-05-05T03:47:53.029Z,13.12
2023-05-05T03:48:52.985Z,13.14
2023-05-05T03:49:52.860Z,13.21
2023-05-05T03:50:52.827Z,13.24
2023-05-05T03:51:52.835Z,13.25
2023-05-05T03:52:52.822Z,13.32
2023-05-05T03:53:52.840Z,13.32
2023-05-05T03:54:52.924Z,13.29
2023-05-05T03:55:52.772Z,13.30
2023-05-05T03:56:52.789Z,13.37
2023-05-05T03:57:52.766Z,13.37
2023-05-05T03:58:52.750Z,13.37
2023-05-05T03:59:52.731Z,13.41
2023-05-05T04:00:52.758Z,13.36
2023-05-05T04:01:52.728Z,13.40
2023-05-05T04:02:52.808Z,13.43
2023-05-05T04:03:52.835Z,13.43
2023-05-05T04:04:52.685Z,13.47
2023-05-05T04:05:52.676Z,13.44
2023-05-05T04:06:52.671Z,13.40
2023-05-05T04:07:52.683Z,13.38
2023-05-05T04:08:53.717Z,13.38
2023-05-05T04:09:53.074Z,13.33
2023-05-05T04:10:52.675Z,13.32
2023-05-05T04:11:52.671Z,13.36
2023-05-05T04:12:52.703Z,13.30
2023-05-05T04:13:52.599Z,13.29
2023-05-05T04:14:52.605Z,13.27
2023-05-05T04:15:52.630Z,13.25
2023-05-05T04:16:52.625Z,13.24
2023-05-05T04:17:52.758Z,13.27
2023-05-05T04:18:52.587Z,13.29
2023-05-05T04:19:52.657Z,13.27
2023-05-05T04:20:52.552Z,13.27
2023-05-05T04:21:52.531Z,13.27
2023-05-05T04:22:52.791Z,13.22
2023-05-05T04:23:52.517Z,13.24
2023-05-05T04:24:52.486Z,13.22
2023-05-05T04:25:52.471Z,13.18
2023-05-05T04:26:52.493Z,13.15
2023-05-05T04:27:52.460Z,13.15
2023-05-05T04:28:52.449Z,13.18
2023-05-05T04:29:52.448Z,13.14
2023-05-05T04:30:52.493Z,13.14
2023-05-05T04:31:52.445Z,13.20
2023-05-05T04:32:52.464Z,13.20
2023-05-05T04:33:52.424Z,13.21
2023-05-05T04:34:52.427Z,13.20
2023-05-05T04:35:52.391Z,13.17
2023-05-05T04:36:52.394Z,13.25
2023-05-05T04:37:52.352Z,13.32
2023-05-05T04:38:52.411Z,13.40
2023-05-05T04:39:52.333Z,13.59
2023-05-05T04:40:52.361Z,13.73
2023-05-05T04:41:52.324Z,13.84
2023-05-05T04:42:52.305Z,13.94
2023-05-05T04:43:52.281Z,13.99
2023-05-05T04:44:52.312Z,14.04
2023-05-05T04:45:52.303Z,14.10
2023-05-05T04:46:52.358Z,14.17
2023-05-05T04:47:52.278Z,14.19
2023-05-05T04:48:52.249Z,14.20
2023-05-05T04:49:52.255Z,14.20
2023-05-05T04:50:52.288Z,14.25
2023-05-05T04:51:52.210Z,14.25
2023-05-05T04:52:52.784Z,14.27
2023-05-05T04:53:52.193Z,14.28
2023-05-05T04:54:52.188Z,14.29
2023-05-05T04:55:52.182Z,14.31
2023-05-05T04:56:52.165Z,14.28
2023-05-05T04:57:52.162Z,14.28
2023-05-05T04:58:52.141Z,14.35
2023-05-05T04:59:52.167Z,14.39
2023-05-05T05:00:52.268Z,14.39
2023-05-05T05:01:52.233Z,14.42
2023-05-05T05:02:52.249Z,14.49
2023-05-05T05:03:52.204Z,14.53
2023-05-05T05:04:52.144Z,14.52
2023-05-05T05:05:52.063Z,14.50
2023-05-05T05:06:52.074Z,14.53
2023-05-05T05:07:52.049Z,14.49
2023-05-05T05:08:52.058Z,14.52
2023-05-05T05:09:52.019Z,14.50
2023-05-05T05:10:52.036Z,14.47
2023-05-05T05:11:52.058Z,14.49
2023-05-05T05:12:51.989Z,14.49
2023-05-05T05:13:52.015Z,14.50
2023-05-05T05:14:51.959Z,14.54
2023-05-05T05:15:52.007Z,14.56
2023-05-05T05:16:52.066Z,14.56
2023-05-05T05:17:52.013Z,14.54
2023-05-05T05:18:52.055Z,14.56
2023-05-05T05:19:51.924Z,14.50
2023-05-05T05:20:51.914Z,14.52
2023-05-05T05:21:51.907Z,14.54
2023-05-05T05:22:51.929Z,14.52
2023-05-05T05:23:51.853Z,14.52
2023-05-05T05:24:51.893Z,14.49
2023-05-05T05:25:51.874Z,14.47
2023-05-05T05:26:51.939Z,14.47
2023-05-05T05:28:02.309Z,14.53
2023-05-05T05:28:51.926Z,14.53
2023-05-05T05:29:51.823Z,14.56
2023-05-05T05:30:51.831Z,14.56
2023-05-05T05:31:51.809Z,14.56
2023-05-05T05:32:51.866Z,14.47
2023-05-05T05:33:51.812Z,14.53
2023-05-05T05:34:51.768Z,14.50
2023-05-05T05:35:52.681Z,14.49
2023-05-05T05:36:51.749Z,14.50
2023-05-05T05:37:52.701Z,14.49
2023-05-05T05:38:51.740Z,14.49
2023-05-05T05:39:52.660Z,14.44
2023-05-05T05:40:51.720Z,14.42
2023-05-05T05:41:51.742Z,14.39
2023-05-05T05:42:51.700Z,14.39
2023-05-05T05:43:52.563Z,14.35
2023-05-05T05:44:51.663Z,14.31
2023-05-05T05:45:51.819Z,14.31
2023-05-05T05:46:51.629Z,14.31
2023-05-05T05:47:51.668Z,14.29
2023-05-05T05:48:51.655Z,14.35
2023-05-05T05:49:51.636Z,14.38
2023-05-05T05:50:51.588Z,14.39
2023-05-05T05:51:51.570Z,14.38
2023-05-05T05:52:51.584Z,14.42
2023-05-05T05:53:51.554Z,14.44
2023-05-05T05:54:51.582Z,14.46
2023-05-05T05:55:51.533Z,14.50
2023-05-05T05:56:51.542Z,14.60
2023-05-05T05:57:51.531Z,14.57
2023-05-05T05:58:51.495Z,14.62
2023-05-05T05:59:51.502Z,14.62
2023-05-05T06:00:51.504Z,14.64
2023-05-05T06:01:51.519Z,14.71
2023-05-05T06:04:26.698Z,14.78
2023-05-05T06:05:27.650Z,14.83
2023-05-05T06:06:27.610Z,14.86
2023-05-05T06:07:27.638Z,14.87
2023-05-05T06:08:27.604Z,14.91
2023-05-05T06:09:27.597Z,14.91
2023-05-05T06:10:28.512Z,14.91
2023-05-05T06:11:27.553Z,14.95
2023-05-05T06:12:27.561Z,14.99
2023-05-05T06:13:27.599Z,14.94
2023-05-05T06:14:27.593Z,15.02
2023-05-05T06:15:27.566Z,14.99
2023-05-05T06:16:27.578Z,14.99
2023-05-05T06:17:27.675Z,14.94
2023-05-05T06:18:27.599Z,14.93
2023-05-05T06:19:27.493Z,14.93
2023-05-05T06:20:27.501Z,14.98
2023-05-05T06:21:27.475Z,14.98
2023-05-05T06:22:27.510Z,14.98
2023-05-05T06:23:27.464Z,15.01
2023-05-05T06:24:27.446Z,15.09
2023-05-05T06:25:27.449Z,15.08
2023-05-05T06:26:27.408Z,15.17
2023-05-05T06:27:27.441Z,15.21
2023-05-05T06:28:27.387Z,15.24
2023-05-05T06:29:27.371Z,15.24
2023-05-05T06:30:27.391Z,15.35
2023-05-05T06:31:27.407Z,15.38
2023-05-05T06:32:27.359Z,15.46
2023-05-05T06:33:27.341Z,15.46
2023-05-05T06:34:27.604Z,15.54
2023-05-05T06:35:27.399Z,15.56
2023-05-05T06:36:27.322Z,15.56
2023-05-05T06:37:27.274Z,15.57
2023-05-05T06:38:27.289Z,15.66
2023-05-05T06:39:27.298Z,15.64
2023-05-05T06:40:27.268Z,15.68
2023-05-05T06:41:27.300Z,15.74
2023-05-05T06:42:27.257Z,15.75
2023-05-05T06:43:27.263Z,15.79
2023-05-05T06:44:27.266Z,15.78
2023-05-05T06:45:27.196Z,15.85
2023-05-05T06:46:27.245Z,15.82
2023-05-05T06:47:27.300Z,15.84
2023-05-05T06:48:27.166Z,15.89
2023-05-05T06:49:27.169Z,15.93
2023-05-05T06:50:27.218Z,15.99
2023-05-05T06:51:27.145Z,16.01
2023-05-05T06:52:27.153Z,16.03
2023-05-05T06:53:27.219Z,16.04
2023-05-05T06:54:27.115Z,16.06
2023-05-05T06:55:27.126Z,16.12
2023-05-05T06:56:27.125Z,16.16
2023-05-05T06:57:27.076Z,16.15
2023-05-05T06:58:27.084Z,16.16
2023-05-05T06:59:27.081Z,16.22
2023-05-05T07:00:27.134Z,16.27
2023-05-05T07:01:27.161Z,16.33
2023-05-05T07:02:27.131Z,16.27
2023-05-05T07:03:27.031Z,16.22
2023-05-05T07:04:27.025Z,16.16
2023-05-05T07:05:27.755Z,16.18
2023-05-05T07:06:26.980Z,16.15
2023-05-05T07:07:27.011Z,16.14
2023-05-05T07:08:27.022Z,16.07
2023-05-05T07:09:26.961Z,16.09
2023-05-05T07:10:27.957Z,16.04
2023-05-05T07:11:27.000Z,16.12
2023-05-05T07:12:26.959Z,16.18
2023-05-05T07:13:26.946Z,16.18
2023-05-05T07:14:26.965Z,16.20
2023-05-05T07:15:29.205Z,16.22
2023-05-05T07:16:26.879Z,16.23
2023-05-05T07:17:26.893Z,16.25
2023-05-05T07:18:26.886Z,16.23
2023-05-05T07:19:26.884Z,16.26
2023-05-05T07:20:26.972Z,16.30
2023-05-05T07:21:26.845Z,16.35
2023-05-05T07:22:26.806Z,16.37
2023-05-05T07:23:26.874Z,16.41
2023-05-05T07:24:26.808Z,16.42
2023-05-05T07:25:26.839Z,16.42
2023-05-05T07:26:26.771Z,16.48
2023-05-05T07:27:26.795Z,16.40
2023-05-05T07:28:26.749Z,16.41
2023-05-05T07:29:26.736Z,16.42
2023-05-05T07:30:26.838Z,16.40
2023-05-05T07:31:26.921Z,16.37
2023-05-05T07:32:26.791Z,16.35
2023-05-05T07:33:26.712Z,16.33
2023-05-05T07:34:26.730Z,16.33
2023-05-05T07:35:26.701Z,16.33
2023-05-05T07:36:26.672Z,16.35
2023-05-05T07:37:26.921Z,16.35
2023-05-05T07:38:26.817Z,16.35
2023-05-05T07:39:26.673Z,16.35
2023-05-05T07:40:26.698Z,16.35
2023-05-05T07:41:26.690Z,16.42
2023-05-05T07:42:26.836Z,16.45
2023-05-05T07:43:26.652Z,16.45
2023-05-05T07:44:26.577Z,16.49
2023-05-05T07:45:26.570Z,16.49
2023-05-05T07:46:26.649Z,16.48
2023-05-05T07:47:26.628Z,16.49
2023-05-05T07:48:26.548Z,16.52
2023-05-05T07:49:26.580Z,16.56
2023-05-05T07:50:26.568Z,16.60
2023-05-05T07:51:26.553Z,16.68
2023-05-05T07:52:37.697Z,16.73
2023-05-05T07:53:26.526Z,16.75
2023-05-05T07:54:26.514Z,16.74
2023-05-05T07:55:26.472Z,16.80
2023-05-05T07:56:26.467Z,16.78
2023-05-05T07:57:26.503Z,16.81
2023-05-05T07:58:26.484Z,16.80
2023-05-05T07:59:26.503Z,16.93
2023-05-05T08:00:26.437Z,17.00
2023-05-05T08:01:26.427Z,17.07
2023-05-05T08:02:26.500Z,17.08
2023-05-05T08:03:26.706Z,17.15
2023-05-05T08:04:26.399Z,17.23
2023-05-05T08:05:26.396Z,17.30
2023-05-05T08:06:26.356Z,17.30
2023-05-05T08:07:26.377Z,17.32
2023-05-05T08:08:26.349Z,17.36
2023-05-05T08:09:26.336Z,17.47
2023-05-05T08:10:26.316Z,17.55
2023-05-05T08:11:27.795Z,17.62
2023-05-05T08:12:26.300Z,17.67
2023-05-05T08:13:26.385Z,17.69
2023-05-05T08:14:26.272Z,17.70
2023-05-05T08:15:26.322Z,17.57
2023-05-05T08:16:26.369Z,17.57
2023-05-05T08:17:26.293Z,17.53
2023-05-05T08:18:26.299Z,17.54
2023-05-05T08:19:29.312Z,17.48
2023-05-05T08:20:26.238Z,17.46
2023-05-05T08:21:26.212Z,17.50
2023-05-05T08:22:26.211Z,17.55
2023-05-05T08:23:26.204Z,17.57
2023-05-05T08:24:26.303Z,17.59
2023-05-05T08:25:26.242Z,17.59
2023-05-05T08:26:26.165Z,17.67
2023-05-05T08:27:26.159Z,17.70
2023-05-05T08:28:26.229Z,17.69
2023-05-05T08:29:26.170Z,17.67
2023-05-05T08:30:26.162Z,17.63
2023-05-05T08:31:26.214Z,17.66
2023-05-05T08:32:28.437Z,17.64
2023-05-05T08:33:26.069Z,17.71
2023-05-05T08:34:26.081Z,17.78
2023-05-05T08:35:26.093Z,17.76
2023-05-05T08:36:26.053Z,17.74
2023-05-05T08:37:26.059Z,17.81
2023-05-05T08:38:26.027Z,17.87
2023-05-05T08:39:26.068Z,17.95
2023-05-05T08:40:26.001Z,17.91
2023-05-05T08:41:26.048Z,17.91
2023-05-05T08:42:36.989Z,18.00
2023-05-05T08:43:26.020Z,18.13
2023-05-05T08:44:25.966Z,18.21
2023-05-05T08:45:25.981Z,18.25
2023-05-05T08:46:25.975Z,18.29
2023-05-05T08:47:25.963Z,18.19
2023-05-05T08:48:25.916Z,18.17
2023-05-05T08:49:25.943Z,18.00
2023-05-05T08:50:25.915Z,18.09
2023-05-05T08:51:25.931Z,18.13
2023-05-05T08:52:25.939Z,18.22
2023-05-05T08:53:25.901Z,18.31
2023-05-05T08:54:25.861Z,18.31
2023-05-05T08:55:25.863Z,18.37
2023-05-05T08:56:25.852Z,18.37
2023-05-05T08:57:25.854Z,18.42
2023-05-05T08:58:27.003Z,18.47
2023-05-05T08:59:25.862Z,18.50
2023-05-05T09:00:25.794Z,18.55
2023-05-05T09:01:25.806Z,18.50
2023-05-05T09:02:25.834Z,18.57
2023-05-05T09:03:25.792Z,18.64
2023-05-05T09:04:25.765Z,18.73
2023-05-05T09:05:25.788Z,18.90
2023-05-05T09:06:25.757Z,18.94
2023-05-05T09:07:25.750Z,18.90
2023-05-05T09:08:25.725Z,18.80
2023-05-05T09:09:25.720Z,18.72
2023-05-05T09:10:25.714Z,18.79
2023-05-05T09:11:25.680Z,18.82
2023-05-05T09:12:25.696Z,18.79
2023-05-05T09:13:25.669Z,18.86
2023-05-05T09:14:25.653Z,18.94
2023-05-05T09:15:25.658Z,18.97
2023-05-05T09:16:25.629Z,18.95
2023-05-05T09:17:25.699Z,18.83
2023-05-05T09:18:25.622Z,18.68
2023-05-05T09:19:25.638Z,18.76
2023-05-05T09:20:25.597Z,18.86
2023-05-05T09:21:25.607Z,18.92
2023-05-05T09:22:25.570Z,18.92
2023-05-05T09:23:25.623Z,18.92
2023-05-05T09:24:25.592Z,18.94
2023-05-05T09:25:25.556Z,18.95
2023-05-05T09:26:25.553Z,18.91
2023-05-05T09:27:25.537Z,18.94
2023-05-05T09:28:25.511Z,18.80
2023-05-05T09:29:25.591Z,18.77
2023-05-05T09:30:25.496Z,18.73
2023-05-05T09:31:25.561Z,18.91
2023-05-05T09:32:25.545Z,19.05
2023-05-05T09:33:25.488Z,19.21
2023-05-05T09:34:25.618Z,19.32
2023-05-05T09:35:25.440Z,19.46
2023-05-05T09:36:25.420Z,19.66
2023-05-05T09:37:25.426Z,19.75
2023-05-05T09:38:25.420Z,19.63
2023-05-05T09:39:25.420Z,19.70
2023-05-05T09:40:25.416Z,19.72
2023-05-05T09:41:25.408Z,19.68
2023-05-05T09:42:25.394Z,19.75
2023-05-05T09:43:25.375Z,19.86
2023-05-05T09:44:25.372Z,19.94
2023-05-05T09:45:25.328Z,19.76
2023-05-05T09:46:25.365Z,19.72
2023-05-05T09:47:29.532Z,19.75
2023-05-05T09:48:25.309Z,19.90
2023-05-05T09:49:25.331Z,20.06
2023-05-05T09:50:25.282Z,20.34
2023-05-05T09:51:25.302Z,20.42
2023-05-05T09:52:25.249Z,20.50
2023-05-05T09:53:25.280Z,20.59
2023-05-05T09:54:25.334Z,20.54
2023-05-05T09:55:25.250Z,20.42
2023-05-05T09:56:25.232Z,20.30
2023-05-05T09:57:25.231Z,20.24
2023-05-05T09:58:25.265Z,20.27
2023-05-05T09:59:25.218Z,20.33
2023-05-05T10:00:25.211Z,20.49
2023-05-05T10:01:25.164Z,20.59
2023-05-05T10:02:25.216Z,20.41
2023-05-05T10:03:25.176Z,20.33
2023-05-05T10:04:25.285Z,20.31
2023-05-05T10:05:25.275Z,20.30
2023-05-05T10:06:25.130Z,20.30
2023-05-05T10:07:25.117Z,20.50
2023-05-05T10:08:25.083Z,20.79
2023-05-05T10:09:25.115Z,20.93
2023-05-05T10:10:26.508Z,21.09
2023-05-05T10:11:25.060Z,21.19
2023-05-05T10:12:25.039Z,21.24
2023-05-05T10:13:25.128Z,21.32
2023-05-05T10:14:25.017Z,21.45
2023-05-05T10:15:25.046Z,21.53
2023-05-05T10:16:26.301Z,21.38
2023-05-05T10:17:25.029Z,21.20
2023-05-05T10:18:25.095Z,21.08
2023-05-05T10:19:24.972Z,20.99
2023-05-05T10:20:25.056Z,20.90
2023-05-05T10:21:24.989Z,20.90
2023-05-05T10:22:24.937Z,20.90
2023-05-05T10:23:24.953Z,21.05
2023-05-05T10:24:24.939Z,21.04
2023-05-05T10:25:24.926Z,20.96
2023-05-05T10:26:24.909Z,20.87
2023-05-05T10:27:24.925Z,20.59
2023-05-05T10:28:24.882Z,20.50
2023-05-05T10:29:24.877Z,20.39
2023-05-05T10:30:24.881Z,20.46
2023-05-05T10:31:26.427Z,20.20
2023-05-05T10:32:51.422Z,19.88
2023-05-05T10:34:24.922Z,19.69
2023-05-05T10:35:24.923Z,19.84
2023-05-05T10:36:24.862Z,20.10
2023-05-05T10:37:24.840Z,20.27
2023-05-05T10:38:26.868Z,20.49
2023-05-05T10:39:24.776Z,20.68
2023-05-05T10:40:24.788Z,20.93
2023-05-05T10:41:24.772Z,21.01
2023-05-05T10:42:24.848Z,20.69
2023-05-05T10:43:24.826Z,20.58
2023-05-05T10:44:24.744Z,20.54
2023-05-05T10:45:24.921Z,20.56
2023-05-05T10:46:24.823Z,20.64
2023-05-05T10:47:24.757Z,20.53
2023-05-05T10:48:24.777Z,20.42
2023-05-05T10:49:24.694Z,20.39
2023-05-05T10:50:24.669Z,20.50
2023-05-05T10:51:35.955Z,20.50
2023-05-05T10:52:24.688Z,20.54
2023-05-05T10:53:24.654Z,20.65
2023-05-05T10:54:24.707Z,20.74
2023-05-05T10:55:24.623Z,20.84
2023-05-05T10:56:24.614Z,21.04
2023-05-05T10:57:24.597Z,21.21
2023-05-05T10:58:24.621Z,21.42
2023-05-05T10:59:24.556Z,21.41
2023-05-05T11:00:24.587Z,21.24
2023-05-05T11:01:24.667Z,20.99
2023-05-05T11:02:24.944Z,20.71
2023-05-05T11:03:24.636Z,20.54
2023-05-05T11:05:47.047Z,20.64
2023-05-05T11:06:48.050Z,20.72
2023-05-05T11:07:48.203Z,20.86
2023-05-05T11:08:48.062Z,21.01
2023-05-05T11:09:48.831Z,21.14
2023-05-05T11:10:47.995Z,21.23
2023-05-05T11:11:47.975Z,21.27
2023-05-05T11:12:47.989Z,21.24
2023-05-05T11:13:47.975Z,21.23
2023-05-05T11:14:47.928Z,21.16
2023-05-05T11:15:47.925Z,20.95
2023-05-05T11:16:48.269Z,20.83
2023-05-05T11:17:47.987Z,20.89
2023-05-05T11:18:47.928Z,20.90
2023-05-05T11:19:47.898Z,20.98
2023-05-05T11:20:47.873Z,21.19
2023-05-05T11:21:47.881Z,21.35
2023-05-05T11:22:47.885Z,21.41
2023-05-05T11:23:47.865Z,21.44
2023-05-05T11:24:47.828Z,21.36
2023-05-05T11:25:47.812Z,21.11
2023-05-05T11:26:47.816Z,20.81
2023-05-05T11:27:47.802Z,20.77
2023-05-05T11:28:47.795Z,20.68
2023-05-05T11:29:48.659Z,20.80
2023-05-05T11:30:47.845Z,20.90
2023-05-05T11:31:47.827Z,21.06
2023-05-05T11:32:47.790Z,21.26
2023-05-05T11:33:47.832Z,21.21
2023-05-05T11:34:47.774Z,21.17
2023-05-05T11:35:47.735Z,21.17
2023-05-05T11:36:47.709Z,21.29
2023-05-05T11:37:47.693Z,21.46
2023-05-05T11:38:47.671Z,21.66
2023-05-05T11:39:47.679Z,21.64
2023-05-05T11:40:47.741Z,21.71
2023-05-05T11:41:47.816Z,21.64
2023-05-05T11:42:47.636Z,21.60
2023-05-05T11:43:47.656Z,21.63
2023-05-05T11:44:47.620Z,21.59
2023-05-05T11:45:47.690Z,21.44
2023-05-05T11:46:47.615Z,21.34
2023-05-05T11:47:47.625Z,21.19
2023-05-05T11:48:47.574Z,21.06
2023-05-05T11:49:47.596Z,21.02
2023-05-05T12:00:37.619Z,21.13
2023-05-05T12:01:20.280Z,21.23
2023-05-05T12:02:20.322Z,21.16
2023-05-05T12:03:20.297Z,21.21
2023-05-05T12:04:20.292Z,21.35
2023-05-05T12:05:20.240Z,21.48
2023-05-05T12:06:20.231Z,21.54
2023-05-05T12:07:20.224Z,21.63
2023-05-05T12:08:20.182Z,21.69
2023-05-05T12:09:20.157Z,21.72
2023-05-05T12:10:20.302Z,21.69
2023-05-05T12:11:20.382Z,21.64
2023-05-05T12:13:56.874Z,21.61
2023-05-05T12:14:57.786Z,21.66
2023-05-05T12:15:58.572Z,21.72
2023-05-05T12:16:57.717Z,21.66
2023-05-05T12:18:00.012Z,21.71
2023-05-05T12:18:58.021Z,21.76
2023-05-05T12:19:57.684Z,21.81
2023-05-05T12:20:57.891Z,21.82
2023-05-05T12:22:00.355Z,21.91
2023-05-05T12:22:58.232Z,22.04
2023-05-05T12:23:57.735Z,22.10
2023-05-05T12:24:58.055Z,22.19
2023-05-05T12:25:57.901Z,22.28
2023-05-05T12:26:59.366Z,22.32
2023-05-05T12:27:57.715Z,22.39
2023-05-05T12:28:57.846Z,22.47
2023-05-05T12:29:58.214Z,22.43
2023-05-05T12:30:58.501Z,22.41
2023-05-05T12:31:58.152Z,22.43
2023-05-05T12:32:57.653Z,22.43
2023-05-05T12:33:57.776Z,22.37
2023-05-05T12:34:58.124Z,22.29
2023-05-05T12:35:57.441Z,22.27
2023-05-05T12:36:57.529Z,22.25
2023-05-05T12:37:57.679Z,22.19
2023-05-05T12:38:57.505Z,22.12
2023-05-05T12:39:57.819Z,21.98
2023-05-05T12:40:59.506Z,21.97
2023-05-05T12:41:59.369Z,21.90
2023-05-05T12:42:57.552Z,21.85
2023-05-05T12:43:57.562Z,21.81
2023-05-05T12:44:57.620Z,21.79
2023-05-05T12:45:57.464Z,21.72
2023-05-05T12:46:57.479Z,21.66
2023-05-05T12:47:57.415Z,21.60
2023-05-05T12:48:57.375Z,21.48
2023-05-05T12:49:57.704Z,21.44
2023-05-05T13:08:48.748Z,21.45
2023-05-05T13:09:49.671Z,21.53
2023-05-05T13:10:49.897Z,21.57
2023-05-05T13:11:50.355Z,21.57
2023-05-05T13:12:49.620Z,21.54
2023-05-05T13:13:49.574Z,21.51
2023-05-05T13:14:51.274Z,21.56
2023-05-05T13:18:04.955Z,21.48
2023-05-05T13:20:16.748Z,21.36
2023-05-05T13:21:17.666Z,21.21
2023-05-05T13:22:17.798Z,21.11
2023-05-05T13:23:17.635Z,21.02
2023-05-05T13:25:17.602Z,20.81
2023-05-05T13:26:18.104Z,20.74
2023-05-05T13:27:17.622Z,20.64
2023-05-05T13:30:33.991Z,20.42
2023-05-05T13:31:33.638Z,20.42
2023-05-05T13:32:33.647Z,20.39
2023-05-05T13:33:33.931Z,20.39